Time;durP1;ratioP1;P1;durP2;ratioP2;P2;SDS_P1;SDS_P2;PMS_P1;PMS_P2;Temp;Humidity;BMP_temperature;BMP_pressure;BME280_temperature;BME280_humidity;BME280_pressure;Samples;Min_cycle;Max_cycle;Signal;HPM_P1;HPM_P2
2021/07/28 00:02:08;;;;;;;5.40;4.18;;;19.70;89.70;;;;;;4960396;28;20039;-74
2021/07/28 00:04:38;;;;;;;5.15;3.92;;;19.60;89.40;;;;;;4967131;28;20031;-73
2021/07/28 00:07:10;;;;;;;5.50;4.38;;;19.60;89.50;;;;;;4961991;28;20030;-73
2021/07/28 00:09:36;;;;;;;5.40;4.32;;;19.60;90.20;;;;;;4962585;28;20046;-73
2021/07/28 00:12:02;;;;;;;5.43;4.03;;;19.50;90.20;;;;;;4961576;28;20037;-74
2021/07/28 00:14:28;;;;;;;7.78;4.10;;;19.60;90.20;;;;;;4965267;28;20034;-75
2021/07/28 00:16:54;;;;;;;6.05;4.13;;;19.60;90.10;;;;;;4960552;28;20031;-74
2021/07/28 00:19:26;;;;;;;7.80;3.88;;;19.60;90.10;;;;;;4967157;28;20030;-74
2021/07/28 00:24:36;;;;;;;6.63;3.53;;;19.50;90.70;;;;;;4962470;28;20093;-74
2021/07/28 00:27:04;;;;;;;6.20;4.25;;;19.40;90.80;;;;;;4961478;28;20062;-73
2021/07/28 00:29:31;;;;;;;6.55;4.20;;;19.30;90.90;;;;;;4964480;28;21737;-74
2021/07/28 00:31:58;;;;;;;6.38;4.50;;;19.40;90.90;;;;;;4950623;28;20049;-71
2021/07/28 00:34:25;;;;;;;5.30;4.13;;;19.40;91.00;;;;;;4939774;28;20062;-73
2021/07/28 00:36:51;;;;;;;5.07;4.45;;;19.40;91.00;;;;;;4949133;28;20015;-73
2021/07/28 00:39:16;;;;;;;10.20;4.70;;;19.40;90.60;;;;;;4949398;28;20031;-73
2021/07/28 00:41:44;;;;;;;8.63;4.90;;;19.40;90.30;;;;;;4947969;28;20030;-72
2021/07/28 00:44:11;;;;;;;7.53;4.15;;;19.40;90.30;;;;;;4951714;28;20038;-74
2021/07/28 00:46:37;;;;;;;6.43;4.60;;;19.40;90.30;;;;;;4945958;28;20038;-73
2021/07/28 00:49:05;;;;;;;8.48;4.65;;;19.50;90.10;;;;;;4949448;28;20026;-73
2021/07/28 00:51:32;;;;;;;6.90;4.22;;;19.30;90.60;;;;;;4925377;28;20704;-73
2021/07/28 00:53:58;;;;;;;5.53;4.18;;;19.40;90.60;;;;;;4942164;28;20154;-73
2021/07/28 00:56:25;;;;;;;5.25;4.32;;;19.30;90.70;;;;;;4939870;28;20023;-73
2021/07/28 00:58:51;;;;;;;5.32;4.28;;;19.40;90.60;;;;;;4943578;28;20462;-74
2021/07/28 01:01:20;;;;;;;6.65;4.88;;;19.30;91.00;;;;;;4944450;28;20090;-73
2021/07/28 01:03:46;;;;;;;5.97;4.40;;;19.30;90.80;;;;;;4944543;28;20114;-73
2021/07/28 01:06:12;;;;;;;6.10;4.20;;;19.20;91.00;;;;;;4940543;28;20114;-73
2021/07/28 01:08:38;;;;;;;5.78;4.40;;;19.20;90.90;;;;;;4943529;28;20038;-73
2021/07/28 01:11:05;;;;;;;7.85;4.90;;;19.20;90.70;;;;;;4962542;28;20051;-73
2021/07/28 01:13:34;;;;;;;5.40;4.67;;;19.20;90.40;;;;;;4947210;28;20035;-72
2021/07/28 01:16:22;;;;;;;7.60;4.90;;;19.30;90.20;;;;;;4946672;28;20286;-73
2021/07/28 01:18:53;;;;;;;6.07;4.63;;;19.20;90.10;;;;;;4961052;28;20070;-72
2021/07/28 01:21:21;;;;;;;6.65;4.80;;;19.30;90.50;;;;;;4943804;28;20643;-73
2021/07/28 01:23:48;;;;;;;7.43;5.00;;;19.20;90.30;;;;;;4948527;28;20035;-74
2021/07/28 01:26:15;;;;;;;8.35;4.95;;;19.20;90.60;;;;;;4951239;28;20528;-73
2021/07/28 01:28:41;;;;;;;7.38;4.63;;;19.20;90.60;;;;;;4945092;28;20102;-73
2021/07/28 01:31:10;;;;;;;8.35;4.70;;;19.20;90.50;;;;;;4955235;28;20930;-74
2021/07/28 01:33:38;;;;;;;7.03;4.55;;;19.30;90.30;;;;;;4967625;28;20498;-73
2021/07/28 01:36:05;;;;;;;;;;;19.20;90.30;;;;;;4970508;28;20039;-74
2021/07/28 01:38:32;;;;;;;6.20;4.85;;;19.30;90.40;;;;;;4962675;28;20324;-74
2021/07/28 01:41:03;;;;;;;7.40;4.90;;;19.30;90.40;;;;;;4964716;28;20054;-74
2021/07/28 01:43:30;;;;;;;9.90;4.63;;;19.30;90.10;;;;;;4994613;28;20050;-73
2021/07/28 01:45:57;;;;;;;14.48;5.03;;;19.30;90.20;;;;;;4962404;28;20055;-73
2021/07/28 01:48:24;;;;;;;7.10;4.35;;;19.30;90.30;;;;;;4960223;28;20374;-74
2021/07/28 01:50:50;;;;;;;5.90;4.45;;;19.30;90.30;;;;;;4962786;28;20173;-74
2021/07/28 01:53:16;;;;;;;5.45;4.25;;;19.30;90.30;;;;;;4959864;28;20458;-72
2021/07/28 01:55:43;;;;;;;7.32;4.90;;;19.20;90.40;;;;;;4966137;28;20033;-73
2021/07/28 01:58:10;;;;;;;8.02;4.97;;;19.20;90.60;;;;;;4957747;28;20043;-73
2021/07/28 02:00:36;;;;;;;6.50;4.72;;;19.20;90.80;;;;;;4959878;28;20526;-72
2021/07/28 02:03:05;;;;;;;9.30;5.05;;;19.20;90.30;;;;;;4962598;28;20055;-73
2021/07/28 02:05:36;;;;;;;7.38;5.13;;;19.20;90.40;;;;;;4964339;28;20066;-72
2021/07/28 02:08:07;;;;;;;7.28;5.22;;;19.20;90.20;;;;;;4963147;28;20109;-72
2021/07/28 02:10:34;;;;;;;9.02;5.85;;;19.20;90.20;;;;;;4966180;28;20414;-74
2021/07/28 02:13:01;;;;;;;8.02;4.85;;;19.30;90.30;;;;;;4963704;28;20516;-74
2021/07/28 02:15:27;;;;;;;6.40;4.55;;;19.20;90.20;;;;;;4968173;28;20045;-73
2021/07/28 02:17:54;;;;;;;11.60;5.30;;;19.20;90.20;;;;;;4967387;28;20050;-74
2021/07/28 02:20:24;;;;;;;6.25;4.30;;;19.20;90.10;;;;;;4969309;28;20031;-74
2021/07/28 02:22:50;;;;;;;7.70;4.85;;;19.30;90.20;;;;;;4966157;28;20077;-73
2021/07/28 02:25:16;;;;;;;6.72;4.85;;;19.20;90.40;;;;;;4969387;28;20027;-73
2021/07/28 02:27:42;;;;;;;8.23;4.70;;;19.20;90.30;;;;;;4968135;28;20039;-73
2021/07/28 02:30:10;;;;;;;8.05;5.30;;;19.20;90.30;;;;;;4967239;28;20022;-73
2021/07/28 02:32:37;;;;;;;8.18;5.00;;;19.20;90.30;;;;;;4964623;28;20569;-73
2021/07/28 02:35:04;;;;;;;8.15;4.88;;;19.20;90.30;;;;;;4993559;28;20034;-74
2021/07/28 02:37:30;;;;;;;7.28;4.85;;;19.20;90.20;;;;;;4966003;28;20789;-74
2021/07/28 02:39:55;;;;;;;7.28;5.05;;;19.10;90.30;;;;;;4959319;28;20138;-74
2021/07/28 02:42:21;;;;;;;8.82;5.10;;;19.00;90.30;;;;;;4966159;28;20046;-75
2021/07/28 02:44:47;;;;;;;5.65;4.55;;;19.10;90.20;;;;;;4966052;28;20039;-74
2021/07/28 02:47:13;;;;;;;8.10;5.13;;;19.00;90.40;;;;;;4974792;28;20034;-74
2021/07/28 02:49:38;;;;;;;10.27;5.25;;;19.00;90.40;;;;;;4963719;28;20090;-74
2021/07/28 02:52:05;;;;;;;7.28;4.82;;;19.00;90.30;;;;;;4962725;28;20954;-73
2021/07/28 02:54:31;;;;;;;7.53;4.75;;;19.00;90.30;;;;;;4965317;28;20031;-74
2021/07/28 02:56:57;;;;;;;7.68;4.90;;;19.00;90.40;;;;;;4964952;28;20026;-74
2021/07/28 02:59:23;;;;;;;7.63;5.00;;;19.00;90.50;;;;;;4967782;28;20022;-74
2021/07/28 03:01:49;;;;;;;6.47;4.72;;;19.00;90.70;;;;;;4965984;28;20891;-74
2021/07/28 03:04:16;;;;;;;8.43;5.35;;;18.80;90.80;;;;;;4964084;28;20149;-74
2021/07/28 03:06:41;;;;;;;8.65;4.80;;;18.90;90.80;;;;;;4961536;28;20023;-74
2021/07/28 03:09:07;;;;;;;11.88;5.10;;;18.90;90.80;;;;;;4966739;28;20023;-74
2021/07/28 03:11:33;;;;;;;8.05;5.05;;;18.90;90.70;;;;;;4965977;28;20571;-74
2021/07/28 03:13:59;;;;;;;8.30;5.32;;;18.90;90.70;;;;;;4962313;28;20061;-74
2021/07/28 03:16:26;;;;;;;8.75;4.97;;;18.90;90.60;;;;;;4839408;28;3657191;-74
2021/07/28 03:18:52;;;;;;;7.63;5.10;;;18.90;90.80;;;;;;4966824;28;20054;-75
2021/07/28 03:21:18;;;;;;;7.57;4.95;;;19.00;90.70;;;;;;4964255;28;20026;-74
2021/07/28 03:23:44;;;;;;;9.45;5.22;;;18.90;90.60;;;;;;4965615;28;20158;-75
2021/07/28 03:26:10;;;;;;;8.15;5.38;;;18.90;90.70;;;;;;4964786;28;20114;-74
2021/07/28 03:28:36;;;;;;;8.07;5.40;;;18.90;90.60;;;;;;4965960;28;20027;-73
2021/07/28 03:31:02;;;;;;;7.22;5.65;;;18.90;90.80;;;;;;4964808;28;20053;-74
2021/07/28 03:33:28;;;;;;;7.30;4.75;;;18.90;90.60;;;;;;4965410;28;20077;-75
2021/07/28 03:35:54;;;;;;;8.80;5.15;;;18.90;90.90;;;;;;4997562;28;20030;-74
2021/07/28 03:38:19;;;;;;;8.80;5.90;;;18.90;91.00;;;;;;4965250;28;20030;-74
2021/07/28 03:40:45;;;;;;;8.43;5.53;;;18.70;91.00;;;;;;4962190;28;20034;-74
2021/07/28 03:43:13;;;;;;;9.65;5.93;;;18.80;91.00;;;;;;4967577;28;20047;-73
2021/07/28 03:45:39;;;;;;;6.60;5.00;;;18.80;91.00;;;;;;4968049;28;20050;-72
2021/07/28 03:48:08;;;;;;;9.00;5.32;;;18.80;91.10;;;;;;4965977;28;20023;-73
2021/07/28 03:50:34;;;;;;;9.32;6.00;;;18.80;91.40;;;;;;4995593;28;20046;-74
2021/07/28 03:53:03;;;;;;;10.85;5.70;;;18.80;91.30;;;;;;4965892;28;20019;-74
2021/07/28 03:55:30;;;;;;;10.40;5.65;;;18.80;91.20;;;;;;4966477;28;20035;-74
2021/07/28 03:57:56;;;;;;;10.30;5.95;;;18.90;91.20;;;;;;4969745;28;20027;-73
2021/07/28 04:00:21;;;;;;;8.27;5.43;;;18.90;91.30;;;;;;4963462;28;20054;-75
2021/07/28 04:02:48;;;;;;;9.10;5.45;;;18.80;91.30;;;;;;4967707;28;20050;-74
2021/07/28 04:05:15;;;;;;;7.88;5.25;;;18.70;91.70;;;;;;4967394;28;20435;-74
2021/07/28 04:07:41;;;;;;;8.57;5.37;;;18.80;91.60;;;;;;4960489;28;20050;-74
2021/07/28 04:10:08;;;;;;;9.70;6.70;;;18.80;91.50;;;;;;4964281;28;20030;-75
2021/07/28 04:12:34;;;;;;;7.93;4.82;;;18.80;91.50;;;;;;4966000;28;20053;-74
2021/07/28 04:15:08;;;;;;;7.88;5.20;;;18.80;91.40;;;;;;4968319;28;20504;-74
2021/07/28 04:17:33;;;;;;;9.30;5.57;;;18.80;91.20;;;;;;4962009;28;20039;-75
2021/07/28 04:19:59;;;;;;;10.25;5.63;;;18.80;91.20;;;;;;4967905;28;20023;-75
2021/07/28 04:22:28;;;;;;;8.65;5.28;;;18.80;91.20;;;;;;4966795;28;20362;-74
2021/07/28 04:24:54;;;;;;;7.40;5.55;;;18.80;91.20;;;;;;4961063;28;20800;-74
2021/07/28 04:27:19;;;;;;;7.13;5.00;;;18.80;91.40;;;;;;4964074;28;20058;-75
2021/07/28 04:29:45;;;;;;;8.43;5.35;;;18.80;91.30;;;;;;4962371;28;20866;-76
2021/07/28 04:32:11;;;;;;;9.38;5.70;;;18.80;91.40;;;;;;4963445;28;20031;-75
2021/07/28 04:34:37;;;;;;;10.25;5.43;;;18.80;91.40;;;;;;4965804;28;20105;-75
2021/07/28 04:37:03;;;;;;;8.18;5.53;;;18.80;91.30;;;;;;4966860;28;20131;-75
2021/07/28 04:39:32;;;;;;;8.63;5.88;;;18.90;91.20;;;;;;4964211;28;20402;-75
2021/07/28 04:41:58;;;;;;;7.10;5.78;;;18.80;91.30;;;;;;4965335;28;20015;-74
2021/07/28 04:44:33;;;;;;;8.43;5.50;;;18.90;91.30;;;;;;4965245;28;20560;-75
2021/07/28 04:46:59;;;;;;;7.38;5.28;;;18.90;91.30;;;;;;4963008;28;20078;-75
2021/07/28 04:49:24;;;;;;;9.68;5.40;;;18.90;91.30;;;;;;4962383;28;20031;-74
2021/07/28 04:51:51;;;;;;;8.20;6.07;;;18.90;91.20;;;;;;4967121;28;20108;-75
2021/07/28 04:54:17;;;;;;;7.25;5.28;;;18.90;91.30;;;;;;4962037;28;20026;-75
2021/07/28 04:56:42;;;;;;;7.35;5.43;;;18.80;91.40;;;;;;4965755;28;20031;-75
2021/07/28 04:59:08;;;;;;;7.75;5.63;;;18.90;91.40;;;;;;4960279;28;20023;-74
2021/07/28 05:01:34;;;;;;;7.85;5.38;;;18.90;91.40;;;;;;4960246;28;20041;-75
2021/07/28 05:04:00;;;;;;;7.82;5.70;;;18.90;91.30;;;;;;4960305;28;20123;-74
2021/07/28 05:06:26;;;;;;;7.97;5.85;;;18.90;91.10;;;;;;4963560;28;20046;-74
2021/07/28 05:08:51;;;;;;;7.97;5.22;;;18.90;91.40;;;;;;4967175;28;20034;-73
2021/07/28 05:11:17;;;;;;;8.98;5.32;;;18.90;91.30;;;;;;4967918;28;20051;-74
2021/07/28 05:13:43;;;;;;;9.15;5.60;;;18.90;91.30;;;;;;4963987;28;20031;-73
2021/07/28 05:16:08;;;;;;;8.43;5.40;;;18.90;91.40;;;;;;4961939;28;20105;-74
2021/07/28 05:18:34;;;;;;;7.90;5.63;;;18.90;91.50;;;;;;4957885;28;20030;-73
2021/07/28 05:21:00;;;;;;;10.40;6.72;;;18.90;91.70;;;;;;4965923;28;20231;-73
2021/07/28 05:23:26;;;;;;;8.02;5.93;;;18.80;91.90;;;;;;4966830;28;20031;-74
2021/07/28 05:25:51;;;;;;;10.32;6.28;;;18.80;91.80;;;;;;4965536;28;20034;-72
2021/07/28 05:28:17;;;;;;;11.25;6.45;;;18.80;91.70;;;;;;4963412;28;20029;-73
2021/07/28 05:30:43;;;;;;;7.38;5.40;;;18.90;91.90;;;;;;4961713;28;20042;-74
2021/07/28 05:33:08;;;;;;;8.98;6.03;;;18.90;91.90;;;;;;4961493;28;20023;-74
2021/07/28 05:35:34;;;;;;;9.07;6.22;;;18.90;91.60;;;;;;4968057;28;20655;-74
2021/07/28 05:38:02;;;;;;;8.55;5.80;;;18.90;92.00;;;;;;4956071;28;20030;-73
2021/07/28 05:40:29;;;;;;;7.32;5.20;;;18.90;91.90;;;;;;4958028;28;20019;-73
2021/07/28 05:43:03;;;;;;;8.07;6.03;;;19.00;91.80;;;;;;4978319;28;20061;-73
2021/07/28 05:45:29;;;;;;;8.35;6.00;;;19.00;91.70;;;;;;4965675;28;20311;-73
2021/07/28 05:47:54;;;;;;;9.30;6.30;;;19.10;91.60;;;;;;4957233;28;20066;-73
2021/07/28 05:50:21;;;;;;;10.25;5.72;;;19.10;91.70;;;;;;4963758;28;20026;-74
2021/07/28 05:52:47;;;;;;;9.15;6.03;;;19.00;91.40;;;;;;4967670;28;20054;-74
2021/07/28 05:55:13;;;;;;;8.05;5.45;;;19.10;91.50;;;;;;4966031;28;20102;-74
2021/07/28 05:57:40;;;;;;;8.30;5.75;;;19.00;91.60;;;;;;4959639;28;20082;-73
2021/07/28 06:00:07;;;;;;;7.93;5.83;;;19.00;91.70;;;;;;4963303;28;20034;-74
2021/07/28 06:02:33;;;;;;;10.18;6.20;;;19.00;91.70;;;;;;4964905;28;20398;-73
2021/07/28 06:04:59;;;;;;;9.73;6.00;;;19.10;91.50;;;;;;4961090;28;20023;-73
2021/07/28 06:07:25;;;;;;;10.10;5.85;;;19.10;91.50;;;;;;4964010;28;20850;-73
2021/07/28 06:09:51;;;;;;;8.25;5.80;;;19.20;91.40;;;;;;4995777;28;20042;-74
2021/07/28 06:12:16;;;;;;;8.18;5.72;;;19.20;91.10;;;;;;4953968;28;20031;-74
2021/07/28 06:14:43;;;;;;;11.60;8.55;;;19.20;91.00;;;;;;4969336;28;20033;-74
2021/07/28 06:17:09;;;;;;;8.23;5.63;;;19.20;91.20;;;;;;4963805;28;20061;-75
2021/07/28 06:19:35;;;;;;;11.73;5.97;;;19.10;90.80;;;;;;4956512;28;21340;-75
2021/07/28 06:22:00;;;;;;;10.27;6.45;;;19.10;91.10;;;;;;4965962;28;20057;-75
2021/07/28 06:24:26;;;;;;;8.05;5.50;;;19.20;90.90;;;;;;4963846;28;20057;-74
2021/07/28 06:26:52;;;;;;;11.70;5.72;;;19.20;90.90;;;;;;4965702;28;20023;-74
2021/07/28 06:29:21;;;;;;;9.18;5.55;;;19.30;90.80;;;;;;4964777;28;20035;-74
2021/07/28 06:31:47;;;;;;;8.40;6.20;;;19.30;90.70;;;;;;4966686;28;20419;-75
2021/07/28 06:34:12;;;;;;;8.65;6.28;;;19.30;90.70;;;;;;4959294;28;20166;-75
2021/07/28 06:36:38;;;;;;;8.55;5.72;;;19.40;90.90;;;;;;4965930;28;20118;-74
2021/07/28 06:39:04;;;;;;;8.77;5.78;;;19.40;90.90;;;;;;4962738;28;20031;-73
2021/07/28 06:41:29;;;;;;;9.15;5.60;;;19.40;90.60;;;;;;4960831;28;20030;-74
2021/07/28 06:43:55;;;;;;;7.78;5.50;;;19.40;90.50;;;;;;4959815;28;20586;-74
2021/07/28 06:46:20;;;;;;;9.52;5.53;;;19.40;90.30;;;;;;4963951;28;20105;-74
2021/07/28 06:48:46;;;;;;;8.90;5.95;;;19.30;90.30;;;;;;4964036;28;20413;-75
2021/07/28 06:51:12;;;;;;;9.85;6.10;;;19.30;90.20;;;;;;4963048;28;20042;-75
2021/07/28 06:53:38;;;;;;;8.10;5.55;;;19.30;90.40;;;;;;4962856;28;20030;-74
2021/07/28 06:56:04;;;;;;;8.25;5.65;;;19.30;90.60;;;;;;4958972;28;20033;-75
2021/07/28 06:58:29;;;;;;;11.60;5.68;;;19.30;90.60;;;;;;4967595;28;20027;-75
2021/07/28 07:00:58;;;;;;;8.07;5.80;;;19.30;90.70;;;;;;4960405;28;20031;-75
2021/07/28 07:03:24;;;;;;;13.52;5.57;;;19.30;90.60;;;;;;4969856;28;20082;-74
2021/07/28 07:05:50;;;;;;;11.82;6.75;;;19.30;90.40;;;;;;4975968;28;20038;-74
2021/07/28 07:08:16;;;;;;;9.65;6.05;;;19.30;90.50;;;;;;4967031;28;20506;-74
2021/07/28 07:10:42;;;;;;;8.18;5.93;;;19.40;90.50;;;;;;4961928;28;20026;-74
2021/07/28 07:13:07;;;;;;;11.60;7.10;;;19.30;90.30;;;;;;4970947;28;20072;-75
2021/07/28 07:15:33;;;;;;;10.38;5.85;;;19.30;90.50;;;;;;4971519;28;20066;-74
2021/07/28 07:17:59;;;;;;;8.55;5.90;;;19.30;90.20;;;;;;4967721;28;20393;-73
2021/07/28 07:20:25;;;;;;;9.55;6.47;;;19.30;90.20;;;;;;4968439;28;20027;-75
2021/07/28 07:22:50;;;;;;;10.13;6.53;;;19.30;90.20;;;;;;4969694;28;20096;-75
2021/07/28 07:25:16;;;;;;;10.02;6.70;;;19.30;90.30;;;;;;4969661;28;20035;-75
2021/07/28 07:27:42;;;;;;;9.52;6.30;;;19.30;90.20;;;;;;4966948;28;20026;-75
2021/07/28 07:30:09;;;;;;;10.70;6.68;;;19.30;90.20;;;;;;4961558;28;20085;-74
2021/07/28 07:32:35;;;;;;;9.10;5.97;;;19.30;90.30;;;;;;4966087;28;20125;-74
2021/07/28 07:35:01;;;;;;;10.60;6.55;;;19.40;90.40;;;;;;4966394;28;20039;-73
2021/07/28 07:37:28;;;;;;;13.13;6.80;;;19.40;90.50;;;;;;4972608;28;20077;-75
2021/07/28 07:39:54;;;;;;;10.27;6.47;;;19.40;90.40;;;;;;4960821;28;20062;-74
2021/07/28 07:42:20;;;;;;;9.00;6.80;;;19.40;90.30;;;;;;4968440;28;20077;-75
2021/07/28 07:44:48;;;;;;;10.65;7.07;;;19.40;90.40;;;;;;4964552;28;20031;-75
2021/07/28 07:47:14;;;;;;;9.70;6.25;;;19.40;90.20;;;;;;4963992;28;20050;-74
2021/07/28 07:49:40;;;;;;;14.32;6.55;;;19.40;90.20;;;;;;4966485;28;20070;-73
2021/07/28 07:52:06;;;;;;;12.55;7.05;;;19.40;90.30;;;;;;4961813;28;20065;-74
2021/07/28 07:54:32;;;;;;;10.57;7.07;;;19.40;90.30;;;;;;4963475;28;20561;-74
2021/07/28 07:56:58;;;;;;;10.70;6.85;;;19.40;90.50;;;;;;4967886;28;20123;-75
2021/07/28 07:59:23;;;;;;;13.10;6.97;;;19.40;90.10;;;;;;4960712;28;20107;-75
2021/07/28 08:01:49;;;;;;;10.30;7.43;;;19.40;90.20;;;;;;4965738;28;20053;-75
2021/07/28 08:04:17;;;;;;;10.88;6.90;;;19.40;90.20;;;;;;4967073;28;20027;-74
2021/07/28 08:06:43;;;;;;;11.52;7.90;;;19.40;90.40;;;;;;4964283;28;20022;-73
2021/07/28 08:09:09;;;;;;;11.88;7.65;;;19.40;90.50;;;;;;4961953;28;20050;-75
2021/07/28 08:11:35;;;;;;;11.50;7.82;;;19.40;90.50;;;;;;4966219;28;20043;-74
2021/07/28 08:14:00;;;;;;;11.73;7.20;;;19.40;90.80;;;;;;4969445;28;20114;-75
2021/07/28 08:16:26;;;;;;;12.55;8.23;;;19.40;90.80;;;;;;4968057;28;20556;-74
2021/07/28 08:18:59;;;;;;;10.93;7.00;;;19.30;90.50;;;;;;4969358;28;20556;-75
2021/07/28 08:21:25;;;;;;;10.45;7.45;;;19.40;90.40;;;;;;4965384;28;20027;-74
2021/07/28 08:23:50;;;;;;;13.18;7.85;;;19.40;90.90;;;;;;4963268;28;20393;-75
2021/07/28 08:26:16;;;;;;;11.35;6.85;;;19.40;90.90;;;;;;4963283;28;20038;-75
2021/07/28 08:28:43;;;;;;;11.00;7.00;;;19.30;90.70;;;;;;4967857;28;20031;-75
2021/07/28 08:31:09;;;;;;;13.75;8.30;;;19.40;91.10;;;;;;4963396;28;20065;-74
2021/07/28 08:33:35;;;;;;;12.73;8.07;;;19.40;91.10;;;;;;4970952;28;20042;-75
2021/07/28 08:36:04;;;;;;;11.30;7.45;;;19.40;91.20;;;;;;4964685;28;20026;-74
2021/07/28 08:38:30;;;;;;;12.70;8.38;;;19.40;90.60;;;;;;4967619;28;20065;-73
2021/07/28 08:41:00;;;;;;;13.88;8.38;;;19.30;90.80;;;;;;4965757;28;20025;-71
2021/07/28 08:43:32;;;;;;;12.68;7.50;;;19.30;91.10;;;;;;4963436;28;20038;-74
2021/07/28 08:46:00;;;;;;;11.02;7.03;;;19.30;91.00;;;;;;4961454;28;20085;-74
2021/07/28 08:48:29;;;;;;;12.35;7.40;;;19.20;91.00;;;;;;4966794;28;20018;-72
2021/07/28 08:50:56;;;;;;;11.60;7.93;;;19.20;90.90;;;;;;4972271;28;20042;-74
2021/07/28 08:53:25;;;;;;;11.98;7.47;;;19.20;90.80;;;;;;4973025;28;20035;-74
2021/07/28 08:55:53;;;;;;;12.43;7.88;;;19.10;90.80;;;;;;4961963;28;20038;-74
2021/07/28 08:58:22;;;;;;;11.82;7.72;;;19.10;91.00;;;;;;4968655;28;20026;-74
2021/07/28 09:00:48;;;;;;;10.55;7.22;;;19.10;91.30;;;;;;4964426;28;20039;-73
2021/07/28 09:03:14;;;;;;;10.57;7.22;;;19.00;91.00;;;;;;4968260;28;20042;-73
2021/07/28 09:05:44;;;;;;;11.80;7.32;;;18.90;91.10;;;;;;4963333;28;20037;-72
2021/07/28 09:08:22;;;;;;;10.77;7.20;;;18.90;91.20;;;;;;4967960;28;20082;-75
2021/07/28 09:11:00;;;;;;;11.63;7.82;;;18.90;91.20;;;;;;4962944;28;20031;-73
2021/07/28 09:13:49;;;;;;;11.98;7.80;;;18.90;91.30;;;;;;4968866;28;20394;-74
2021/07/28 09:16:16;;;;;;;11.80;7.60;;;18.90;91.40;;;;;;4956574;28;20178;-75
2021/07/28 09:18:51;;;;;;;11.55;7.82;;;19.00;91.40;;;;;;4964037;28;20102;-72
2021/07/28 09:21:20;;;;;;;11.30;7.43;;;18.90;91.30;;;;;;4963472;28;20402;-73
2021/07/28 09:23:51;;;;;;;10.57;7.55;;;18.90;91.40;;;;;;4967743;28;20145;-74
2021/07/28 09:26:31;;;;;;;10.27;7.65;;;18.90;91.70;;;;;;4969499;28;20061;-74
2021/07/28 09:29:08;;;;;;;11.25;6.72;;;18.90;91.70;;;;;;4980181;28;20019;-74
2021/07/28 09:31:49;;;;;;;13.97;7.57;;;18.90;91.80;;;;;;4951011;28;20121;-73
2021/07/28 09:34:21;;;;;;;12.63;7.60;;;18.90;91.80;;;;;;4945806;28;20028;-73
2021/07/28 09:37:04;;;;;;;12.10;7.55;;;18.90;91.70;;;;;;4945302;28;20023;-75
2021/07/28 09:39:39;;;;;;;10.95;6.60;;;18.90;91.70;;;;;;4942014;28;20035;-75
2021/07/28 09:42:13;;;;;;;10.13;6.88;;;19.00;91.70;;;;;;4941815;28;20595;-75
2021/07/28 09:44:42;;;;;;;11.85;7.65;;;19.00;91.70;;;;;;4945674;28;20487;-74
2021/07/28 09:47:12;;;;;;;11.30;7.20;;;19.00;91.50;;;;;;4940665;28;20121;-74
2021/07/28 09:49:57;;;;;;;10.73;7.15;;;19.10;91.40;;;;;;4939500;28;20023;-73
2021/07/28 09:52:33;;;;;;;11.45;7.40;;;19.10;91.50;;;;;;4942971;28;20607;-76
2021/07/28 09:55:27;;;;;;;9.68;6.45;;;19.10;91.70;;;;;;4943804;28;20030;-74
2021/07/28 09:57:57;;;;;;;10.63;6.82;;;19.10;90.90;;;;;;4945614;28;20087;-74
2021/07/28 10:00:27;;;;;;;12.32;7.10;;;18.90;91.00;;;;;;4941660;28;20023;-75
2021/07/28 10:03:01;;;;;;;11.40;7.30;;;19.00;90.90;;;;;;4964051;28;20077;-74
2021/07/28 10:05:28;;;;;;;10.85;6.63;;;19.00;91.10;;;;;;4967716;28;20033;-74
2021/07/28 10:07:59;;;;;;;12.40;6.67;;;19.00;91.10;;;;;;4957866;28;20027;-74
2021/07/28 10:10:27;;;;;;;9.15;6.28;;;19.00;91.40;;;;;;4958259;28;20489;-74
2021/07/28 10:12:54;;;;;;;9.25;5.68;;;19.00;91.10;;;;;;4965100;28;20399;-75
2021/07/28 10:15:22;;;;;;;9.25;4.97;;;19.00;90.60;;;;;;4964127;28;20162;-75
2021/07/28 10:17:51;;;;;;;7.35;5.25;;;18.90;89.80;;;;;;4964464;28;20023;-75
2021/07/28 10:20:17;;;;;;;8.77;5.35;;;18.80;89.70;;;;;;4963887;28;20034;-75
2021/07/28 10:22:43;;;;;;;7.25;5.13;;;18.80;89.80;;;;;;4963966;28;20691;-74
2021/07/28 10:25:17;;;;;;;6.13;4.50;;;18.80;90.10;;;;;;4958546;28;20046;-74
2021/07/28 10:27:49;;;;;;;8.65;4.93;;;18.70;90.10;;;;;;4965019;28;20053;-75
2021/07/28 10:30:15;;;;;;;8.60;5.38;;;18.70;90.40;;;;;;4964903;28;20045;-74
2021/07/28 10:32:42;;;;;;;7.05;4.35;;;18.70;90.10;;;;;;4966854;28;20188;-74
2021/07/28 10:35:27;;;;;;;8.57;5.03;;;18.70;90.00;;;;;;4962806;28;20027;-74
2021/07/28 10:37:57;;;;;;;7.30;4.97;;;18.70;90.00;;;;;;4966482;28;20098;-74
2021/07/28 10:40:26;;;;;;;8.20;5.25;;;18.60;90.00;;;;;;4968464;28;20182;-74
2021/07/28 10:42:55;;;;;;;8.63;4.93;;;18.70;89.60;;;;;;4969351;28;20521;-75
2021/07/28 10:45:24;;;;;;;7.07;5.13;;;18.60;90.30;;;;;;4970129;28;20034;-72
2021/07/28 10:47:51;;;;;;;6.53;4.78;;;18.60;90.20;;;;;;4966249;28;20038;-74
2021/07/28 10:50:20;;;;;;;11.47;9.77;;;18.60;90.40;;;;;;4965181;28;20027;-75
2021/07/28 10:52:50;;;;;;;7.93;5.78;;;18.60;90.80;;;;;;4962791;28;20042;-75
2021/07/28 10:55:21;;;;;;;8.82;4.68;;;18.60;90.70;;;;;;4968711;28;20034;-75
2021/07/28 10:57:53;;;;;;;6.43;4.10;;;18.60;90.70;;;;;;4969398;28;20085;-74
2021/07/28 11:00:43;;;;;;;10.23;4.55;;;18.60;90.40;;;;;;4966543;28;20047;-75
2021/07/28 11:03:13;;;;;;;6.45;4.03;;;18.50;90.30;;;;;;4968837;28;20023;-75
2021/07/28 11:05:44;;;;;;;6.30;3.60;;;18.50;90.60;;;;;;4964968;28;20046;-75
2021/07/28 11:08:12;;;;;;;4.68;3.65;;;18.50;89.60;;;;;;4964532;28;20041;-75
2021/07/28 11:11:01;;;;;;;6.10;4.05;;;18.40;89.50;;;;;;4980296;28;20620;-74
2021/07/28 11:13:31;;;;;;;5.75;3.40;;;18.40;90.10;;;;;;4966440;28;20065;-73
2021/07/28 11:16:06;;;;;;;6.72;3.80;;;18.40;90.10;;;;;;4968050;28;20026;-74
2021/07/28 11:18:45;;;;;;;5.43;3.58;;;18.40;90.30;;;;;;4966569;28;20034;-74
2021/07/28 11:21:22;;;;;;;5.68;3.47;;;18.40;90.40;;;;;;4966172;28;20590;-74
2021/07/28 11:23:49;;;;;;;5.40;3.75;;;18.40;90.60;;;;;;4964536;28;20118;-73
2021/07/28 11:26:17;;;;;;;6.25;3.97;;;18.40;90.60;;;;;;4972579;28;20026;-74
2021/07/28 11:28:43;;;;;;;;;;;18.50;91.10;;;;;;4970796;28;20050;-74
2021/07/28 11:31:09;;;;;;;6.60;4.07;;;18.50;91.10;;;;;;4960331;28;20000;-75
2021/07/28 11:33:35;;;;;;;6.30;4.57;;;18.50;90.70;;;;;;4937535;28;20079;-73
2021/07/28 11:36:02;;;;;;;5.68;3.95;;;18.60;90.70;;;;;;4957348;28;20034;-74
2021/07/28 11:38:39;;;;;;;5.53;3.65;;;18.60;90.40;;;;;;4955915;28;20028;-73
2021/07/28 11:41:08;;;;;;;5.57;3.70;;;18.60;90.40;;;;;;4933196;28;20031;-73
2021/07/28 11:43:39;;;;;;;5.50;3.65;;;18.60;89.30;;;;;;4949175;28;20035;-74
2021/07/28 11:46:10;;;;;;;5.45;3.45;;;18.60;90.30;;;;;;4949648;28;20660;-74
2021/07/28 11:48:46;;;;;;;4.78;3.10;;;18.70;90.60;;;;;;4945031;28;20019;-73
2021/07/28 11:51:32;;;;;;;6.07;3.40;;;18.70;89.90;;;;;;4950867;28;20034;-75
2021/07/28 11:54:13;;;;;;;5.30;3.50;;;18.60;89.50;;;;;;4946809;28;20027;-74
2021/07/28 11:56:53;;;;;;;5.88;3.30;;;18.50;86.90;;;;;;4946820;28;20095;-74
2021/07/28 11:59:21;;;;;;;5.97;3.50;;;18.50;89.00;;;;;;4947047;28;20020;-74
2021/07/28 12:01:48;;;;;;;4.75;2.88;;;18.50;89.70;;;;;;4953538;28;20041;-74
2021/07/28 12:04:24;;;;;;;5.18;3.55;;;18.50;89.40;;;;;;4964002;28;20071;-73
2021/07/28 12:06:51;;;;;;;6.15;3.45;;;18.50;90.60;;;;;;4956869;28;20247;-74
2021/07/28 12:09:27;;;;;;;5.15;3.30;;;18.50;89.60;;;;;;4972229;28;20030;-75
2021/07/28 12:12:00;;;;;;;3.63;3.22;;;18.40;89.60;;;;;;4958508;28;20093;-74
2021/07/28 12:14:27;;;;;;;6.70;3.60;;;18.40;89.30;;;;;;4968231;28;20031;-74
2021/07/28 12:17:01;;;;;;;5.20;3.60;;;18.40;88.70;;;;;;4969481;28;20035;-75
2021/07/28 12:19:31;;;;;;;5.55;3.58;;;18.40;89.40;;;;;;4966464;28;20031;-75
2021/07/28 12:22:01;;;;;;;7.45;3.95;;;18.40;89.90;;;;;;4961228;28;20134;-74
2021/07/28 12:24:47;;;;;;;7.18;3.28;;;18.40;90.00;;;;;;4965882;28;20050;-74
2021/07/28 12:27:26;;;;;;;5.45;3.60;;;18.50;90.10;;;;;;4965986;28;20405;-74
2021/07/28 12:30:02;;;;;;;4.13;3.30;;;18.50;90.00;;;;;;4969061;28;20027;-74
2021/07/28 12:32:45;;;;;;;5.85;3.80;;;18.50;90.10;;;;;;4967313;28;20362;-74
2021/07/28 12:35:20;;;;;;;6.28;4.20;;;18.50;90.30;;;;;;4964038;28;20038;-75
2021/07/28 12:37:46;;;;;;;4.63;3.42;;;18.60;90.00;;;;;;4963522;28;20120;-73
2021/07/28 12:40:12;;;;;;;6.15;3.88;;;18.60;90.30;;;;;;4954802;28;20035;-75
2021/07/28 12:42:38;;;;;;;6.60;3.63;;;18.60;90.30;;;;;;4968391;28;20042;-74
2021/07/28 12:45:10;;;;;;;7.40;4.10;;;18.70;90.30;;;;;;4973452;28;20084;-75
2021/07/28 12:47:36;;;;;;;7.07;4.50;;;18.70;91.00;;;;;;4973868;28;20039;-74
2021/07/28 12:50:02;;;;;;;5.22;4.13;;;18.80;90.50;;;;;;4965834;28;20030;-73
2021/07/28 12:52:37;;;;;;;6.65;4.40;;;18.80;90.70;;;;;;4968071;28;20141;-72
2021/07/28 12:55:04;;;;;;;8.43;4.20;;;18.80;90.60;;;;;;4967809;28;20588;-74